sensor_id;sensor_type;location;lat;lon;timestamp;P1;durP1;ratioP1;P2;durP2;ratioP2
47259;SDS011;32999;52.412;4.890;2023-03-01T00:58:17;15.77;;;7.55;;
47259;SDS011;32999;52.412;4.890;2023-03-01T01:04:13;14.27;;;8.10;;
47259;SDS011;32999;52.412;4.890;2023-03-01T01:09:17;14.98;;;8.05;;
47259;SDS011;32999;52.412;4.890;2023-03-01T01:14:25;18.58;;;8.32;;
47259;SDS011;32999;52.412;4.890;2023-03-01T01:19:29;12.25;;;7.65;;
47259;SDS011;32999;52.412;4.890;2023-03-01T01:24:34;12.07;;;7.90;;
47259;SDS011;32999;52.412;4.890;2023-03-01T01:29:36;15.90;;;8.23;;
47259;SDS011;32999;52.412;4.890;2023-03-01T01:34:39;13.27;;;8.63;;
47259;SDS011;32999;52.412;4.890;2023-03-01T01:39:45;17.10;;;8.85;;
47259;SDS011;32999;52.412;4.890;2023-03-01T01:44:47;13.50;;;7.10;;
47259;SDS011;32999;52.412;4.890;2023-03-01T01:49:50;14.05;;;7.78;;
47259;SDS011;32999;52.412;4.890;2023-03-01T01:55:04;15.23;;;8.38;;
47259;SDS011;32999;52.412;4.890;2023-03-01T02:05:15;12.63;;;7.63;;
47259;SDS011;32999;52.412;4.890;2023-03-01T02:10:23;13.10;;;7.30;;
47259;SDS011;32999;52.412;4.890;2023-03-01T02:15:25;14.45;;;7.22;;
47259;SDS011;32999;52.412;4.890;2023-03-01T02:20:29;14.27;;;7.63;;
47259;SDS011;32999;52.412;4.890;2023-03-01T02:25:41;13.27;;;7.90;;
47259;SDS011;32999;52.412;4.890;2023-03-01T02:30:50;11.15;;;6.95;;
47259;SDS011;32999;52.412;4.890;2023-03-01T02:36:10;14.95;;;7.93;;
47259;SDS011;32999;52.412;4.890;2023-03-01T02:41:15;12.63;;;7.07;;
47259;SDS011;32999;52.412;4.890;2023-03-01T02:46:20;14.23;;;8.32;;
47259;SDS011;32999;52.412;4.890;2023-03-01T02:51:38;14.63;;;7.60;;
47259;SDS011;32999;52.412;4.890;2023-03-01T03:01:52;13.88;;;7.75;;
47259;SDS011;32999;52.412;4.890;2023-03-01T03:06:54;12.77;;;8.57;;
47259;SDS011;32999;52.412;4.890;2023-03-01T03:11:56;15.55;;;7.47;;
47259;SDS011;32999;52.412;4.890;2023-03-01T03:16:59;15.68;;;8.63;;
47259;SDS011;32999;52.412;4.890;2023-03-01T03:22:06;15.30;;;8.02;;
47259;SDS011;32999;52.412;4.890;2023-03-01T03:27:10;14.80;;;7.90;;
47259;SDS011;32999;52.412;4.890;2023-03-01T03:32:13;14.30;;;7.45;;
47259;SDS011;32999;52.412;4.890;2023-03-01T03:37:15;15.48;;;8.32;;
47259;SDS011;32999;52.412;4.890;2023-03-01T03:42:31;13.50;;;7.30;;
47259;SDS011;32999;52.412;4.890;2023-03-01T03:47:34;19.77;;;9.07;;
47259;SDS011;32999;52.412;4.890;2023-03-01T03:52:36;18.95;;;9.00;;
47259;SDS011;32999;52.412;4.890;2023-03-01T03:57:38;14.40;;;8.20;;
47259;SDS011;32999;52.412;4.890;2023-03-01T04:02:43;13.57;;;7.50;;
47259;SDS011;32999;52.412;4.890;2023-03-01T04:07:46;14.10;;;7.93;;
47259;SDS011;32999;52.412;4.890;2023-03-01T04:12:48;13.40;;;8.32;;
47259;SDS011;32999;52.412;4.890;2023-03-01T04:17:52;15.98;;;8.85;;
47259;SDS011;32999;52.412;4.890;2023-03-01T04:22:57;15.45;;;8.20;;
47259;SDS011;32999;52.412;4.890;2023-03-01T04:28:00;16.23;;;8.65;;
47259;SDS011;32999;52.412;4.890;2023-03-01T04:33:04;17.20;;;8.73;;
47259;SDS011;32999;52.412;4.890;2023-03-01T04:38:06;12.80;;;8.15;;
47259;SDS011;32999;52.412;4.890;2023-03-01T04:43:08;13.02;;;7.93;;
47259;SDS011;32999;52.412;4.890;2023-03-01T04:48:12;13.07;;;7.80;;
47259;SDS011;32999;52.412;4.890;2023-03-01T04:53:14;13.45;;;7.38;;
47259;SDS011;32999;52.412;4.890;2023-03-01T04:58:15;15.73;;;8.23;;
47259;SDS011;32999;52.412;4.890;2023-03-01T05:03:19;12.77;;;7.85;;
47259;SDS011;32999;52.412;4.890;2023-03-01T05:08:21;15.93;;;8.00;;
47259;SDS011;32999;52.412;4.890;2023-03-01T05:13:23;15.07;;;8.63;;
47259;SDS011;32999;52.412;4.890;2023-03-01T05:18:27;14.38;;;7.68;;
47259;SDS011;32999;52.412;4.890;2023-03-01T05:23:30;14.05;;;7.53;;
47259;SDS011;32999;52.412;4.890;2023-03-01T05:28:32;13.10;;;7.45;;
47259;SDS011;32999;52.412;4.890;2023-03-01T05:33:35;10.57;;;6.40;;
47259;SDS011;32999;52.412;4.890;2023-03-01T05:38:38;15.05;;;8.27;;
47259;SDS011;32999;52.412;4.890;2023-03-01T05:43:40;17.13;;;9.93;;
47259;SDS011;32999;52.412;4.890;2023-03-01T05:48:46;27.83;;;10.48;;
47259;SDS011;32999;52.412;4.890;2023-03-01T05:53:48;52.03;;;13.68;;
47259;SDS011;32999;52.412;4.890;2023-03-01T05:58:59;39.70;;;13.10;;
47259;SDS011;32999;52.412;4.890;2023-03-01T06:04:03;138.52;;;15.45;;
47259;SDS011;32999;52.412;4.890;2023-03-01T06:09:06;231.23;;;19.95;;
47259;SDS011;32999;52.412;4.890;2023-03-01T06:14:09;43.83;;;14.05;;
47259;SDS011;32999;52.412;4.890;2023-03-01T06:19:16;64.88;;;16.13;;
47259;SDS011;32999;52.412;4.890;2023-03-01T06:24:18;71.28;;;14.38;;
47259;SDS011;32999;52.412;4.890;2023-03-01T06:29:20;32.80;;;11.32;;
47259;SDS011;32999;52.412;4.890;2023-03-01T06:34:23;129.00;;;16.52;;
47259;SDS011;32999;52.412;4.890;2023-03-01T06:39:27;47.13;;;13.43;;
47259;SDS011;32999;52.412;4.890;2023-03-01T06:44:31;83.28;;;13.00;;
47259;SDS011;32999;52.412;4.890;2023-03-01T06:49:38;48.90;;;12.82;;
47259;SDS011;32999;52.412;4.890;2023-03-01T06:54:46;55.63;;;12.80;;
47259;SDS011;32999;52.412;4.890;2023-03-01T06:59:51;57.40;;;13.90;;
47259;SDS011;32999;52.412;4.890;2023-03-01T07:04:57;60.03;;;13.45;;
47259;SDS011;32999;52.412;4.890;2023-03-01T07:09:59;159.38;;;17.88;;
47259;SDS011;32999;52.412;4.890;2023-03-01T07:15:10;41.22;;;11.65;;
47259;SDS011;32999;52.412;4.890;2023-03-01T07:20:24;82.80;;;11.30;;
47259;SDS011;32999;52.412;4.890;2023-03-01T07:25:31;107.18;;;14.38;;
47259;SDS011;32999;52.412;4.890;2023-03-01T07:30:48;220.73;;;18.63;;
47259;SDS011;32999;52.412;4.890;2023-03-01T07:35:56;97.55;;;12.65;;
47259;SDS011;32999;52.412;4.890;2023-03-01T07:40:59;182.88;;;18.35;;
47259;SDS011;32999;52.412;4.890;2023-03-01T07:46:03;142.90;;;15.18;;
47259;SDS011;32999;52.412;4.890;2023-03-01T07:51:11;128.23;;;13.70;;
47259;SDS011;32999;52.412;4.890;2023-03-01T07:56:17;126.22;;;15.45;;
47259;SDS011;32999;52.412;4.890;2023-03-01T08:01:31;46.85;;;11.77;;
47259;SDS011;32999;52.412;4.890;2023-03-01T08:13:02;84.93;;;15.43;;
47259;SDS011;32999;52.412;4.890;2023-03-01T08:23:52;86.43;;;16.92;;
47259;SDS011;32999;52.412;4.890;2023-03-01T10:52:43;13.27;;;9.05;;
47259;SDS011;32999;52.412;4.890;2023-03-01T11:03:54;10.50;;;7.53;;
47259;SDS011;32999;52.412;4.890;2023-03-01T11:51:21;12.15;;;7.57;;
47259;SDS011;32999;52.412;4.890;2023-03-01T11:56:38;11.40;;;7.70;;
47259;SDS011;32999;52.412;4.890;2023-03-01T12:26:30;13.75;;;6.82;;
47259;SDS011;32999;52.412;4.890;2023-03-01T12:37:21;8.55;;;5.13;;
47259;SDS011;32999;52.412;4.890;2023-03-01T14:12:39;13.07;;;6.88;;
47259;SDS011;32999;52.412;4.890;2023-03-01T14:18:14;10.00;;;5.60;;
47259;SDS011;32999;52.412;4.890;2023-03-01T15:55:28;6.68;;;3.78;;
47259;SDS011;32999;52.412;4.890;2023-03-01T20:28:49;14.95;;;8.73;;
47259;SDS011;32999;52.412;4.890;2023-03-01T20:34:51;18.55;;;10.65;;
47259;SDS011;32999;52.412;4.890;2023-03-01T23:36:56;42.72;;;20.38;;
47259;SDS011;32999;52.412;4.890;2023-03-01T23:42:05;43.13;;;22.50;;
47259;SDS011;32999;52.412;4.890;2023-03-01T23:48:04;39.55;;;21.00;;
47259;SDS011;32999;52.412;4.890;2023-03-01T23:53:45;47.67;;;22.30;;
47259;SDS011;32999;52.412;4.890;2023-03-01T23:58:59;57.25;;;23.75;;
